Sebring, Ohio
Current Conditions -  °F | °C
As of 6:51 AM on Tuesday 27 Jan 2015 (Local Time) from KCAK Reporting Station
Light Snow Light Snow  
Wind Chill:   Ceiling: 2700
Heat Index: 18°   Visibility: 4mi
Dew Point: 12°   Wind: 9mph
Humidity: 78%   Direction: 10°N
Pressure: 29.91"   Gusts: NA
Location:  40.92°N, 81.02°W
Report Text: KCAK 271151Z 01008KT 4SM -SN SCT014 OVC027 M08/M11 A2991 RMK AO2 SNE05B45 SLP150 4/006 P0000 60001 70009 T10781111 11072 21078 53014 $
Loading
Personal Weather Stations






























Interactive Weather Map New forecast layout! Learn more

10-Day Weather Forecast

Advertisements
Track Severe Weather on mobile